Laurier, WA

5:30 AM PDT on May 04, 2015 (GMT -0700)
IBCGRAND2 | | Change Station
CLOSE
Current Station
Personal Weather Station
Location: Grand Forks, BC
Elevation: 1686 ft
Nearby Weather Stations

Elev 1686 ft 49.03 °N, 118.45 °W | Updated 3 minutes ago

Clear
Clear
35.1 °F
Feels Like 35 °F
N
0.0
Wind Variable Wind from NE
Gusts 0.0 mph

Today
High -- | Low -- °F
--% Chance of Precip.
Yesterday
High -- | Low -- °F
Precip. -- in
5:27 AM 8:13 PM
Full, 100% visible
Pressure 29.87 in
Visibility 10.0 miles
Clouds Clear
Windchill 35 °F
Dew Point 31 °F
Humidity 84%
Rainfall 0.00 in
Snow Depth Not available.
UV 0 out of 12
Pollen 9.40 out of 12
Air Quality Not available.
Flu Activity Sporadic
METAR KOMK 041153Z AUTO 30004KT 10SM CLR 03/M01 A2987 RMK AO2 SLP115 T00331011 10117 20028 50003

More Conditions Fewer Conditions

Pressure 29.87 in
Visibility 10.0 miles
Clouds Clear
Windchill 35 °F
Dew Point 31 °F
Humidity 84%
Rainfall 0.00 in
Snow Depth Not available.
UV 0 out of 12
Pollen 9.40 out of 12
Air Quality Not available.
Flu Activity Sporadic
METAR KOMK 041153Z AUTO 30004KT 10SM CLR 03/M01 A2987 RMK AO2 SLP115 T00331011 10117 20028 50003

More Conditions Fewer Conditions

Nepal has a long way to go to dig out and rebuild from a devastating earthquake. We have teamed up with several charities and organizations to make contributing to the relief effort as easy as possible.
How you can help: Portlight Strategies | Red Cross

10-Day Weather Forecast

Almanac

Astronomy

May. 04, 2015 Rise Set
Actual Time
Civil Twilight
Nautical Twilight
Astronomical Twilight
Moon
Length of Visible Light
Length of Day
Tomorrow will be .
, % of the Moon is Illuminated

Today's Extremes

State Highs State Lows

Community

WunderPhotos

Upload Photos

1,818,582 photos uploaded!

WunderBlogs® & News

Nearby

Air Quality

  Air Quality AQ Index Pollutant
Not available.

Snow Depth

Station Depth Elevation

Earthquake Activity

City Distance Mag. Time & Date
Minimum magnitude displayed is 2.5.

Coastal Water Temperatures

Place Temperature

Stations

Nearby Weather Stations

Station Location Temp. Windchill Dew Point Humidity Wind Precip. Elev Updated Type